MET'MAP v2.0
soon released !

Expected late october,
this new version will be
more efficient, smarter,
and hosted on a brand new
server x3 powerfull...
...and still free !


Not compatible ?
Try the mobile version !

LOG IN : | Subscribe | Disclaimer | Who is Orbifly ? |
ICAO code :

TAF - LFOK Chalons Vatry - 25 Feb 2020 14:16 UTC
Data Sources :     NOAA   


- Airport Elevation : 587 ft
- IATA code : XCR
- No reported NOTAMs.


LFOK - Chalons Vatry

Latest METAR recorded : 2015/08/11 08:00 LFOK 110800Z AUTO 02008KT CAVOK 21/16 Q1018
TAF TAF LFOK
Valid from the 25 at 12:00 until the 26 at 12:00 UTC


251100Z 2512/2612 25013KT 9999 BKN025
TEMPO 2512/2612 25015G30KT 3000 SHRA BKN020TCU
PROB30
TEMPO 2515/2522 25025G40KT 1200 TSRAGS BKN015CB
PROB30
TEMPO 2604/2609 1000 SHSNRA BKN013CB

Source NOAA


MET'MAP, your aeronautical weather chart ! - Copyright ORBIFLY December 2007

Programming & Development : Alexandra Zaïnal
Co-Developer : Marc-Olivier Méhu
Technical & hardware support : Manuel Goepfert
Concept & Financing : Baudouin d'Aumeries